Time;durP1;ratioP1;P1;durP2;ratioP2;P2;SDS_P1;SDS_P2;PMS_P1;PMS_P2;Temp;Humidity;BMP_temperature;BMP_pressure;BME280_temperature;BME280_humidity;BME280_pressure;Samples;Min_cycle;Max_cycle;Signal;HPM_P1;HPM_P2
2023/04/05 00:00:58;;;;;;;3.95;2.72;;;6.60;51.90;;;;;;5075168;28;20040;-66
2023/04/05 00:03:24;;;;;;;3.63;2.40;;;6.60;52.00;;;;;;5076426;28;20056;-67
2023/04/05 00:05:53;;;;;;;4.78;2.92;;;6.50;52.00;;;;;;5072605;28;20025;-67
2023/04/05 00:08:27;;;;;;;4.68;3.20;;;6.50;52.00;;;;;;5073317;28;20025;-67
2023/04/05 00:10:53;;;;;;;6.53;3.42;;;6.50;52.10;;;;;;5074851;28;20103;-67
2023/04/05 00:13:20;;;;;;;6.45;3.50;;;6.50;52.20;;;;;;5074897;28;20016;-66
2023/04/05 00:15:47;;;;;;;6.47;3.10;;;6.40;52.20;;;;;;5078633;28;20141;-67
2023/04/05 00:18:18;;;;;;;4.03;2.83;;;6.40;52.20;;;;;;5080984;28;20039;-67
2023/04/05 00:20:44;;;;;;;5.10;3.25;;;6.40;52.30;;;;;;5080345;28;20489;-67
2023/04/05 00:23:09;;;;;;;4.22;2.90;;;6.40;52.40;;;;;;5082608;28;20081;-66
2023/04/05 00:25:35;;;;;;;4.38;3.10;;;6.30;52.40;;;;;;5080907;28;20487;-66
2023/04/05 00:28:00;;;;;;;3.75;2.85;;;6.30;52.50;;;;;;5079620;28;20024;-68
2023/04/05 00:30:27;;;;;;;5.63;3.00;;;6.30;52.60;;;;;;5082705;28;20367;-68
2023/04/05 00:32:53;;;;;;;5.28;3.28;;;6.20;52.60;;;;;;5083048;28;20056;-67
2023/04/05 00:35:19;;;;;;;5.38;3.15;;;6.20;52.70;;;;;;5076027;28;20047;-68
2023/04/05 00:37:44;;;;;;;4.25;3.40;;;6.10;52.80;;;;;;5078531;28;20099;-68
2023/04/05 00:40:10;;;;;;;4.18;3.08;;;6.10;52.80;;;;;;5078536;28;20585;-67
2023/04/05 00:42:36;;;;;;;5.05;3.35;;;6.10;52.90;;;;;;5083778;28;20498;-66
2023/04/05 00:45:01;;;;;;;4.68;3.28;;;6.10;53.00;;;;;;5082069;28;20024;-66
2023/04/05 00:47:27;;;;;;;5.03;3.20;;;6.10;53.00;;;;;;5078956;28;20031;-67
2023/04/05 00:49:53;;;;;;;4.65;3.28;;;6.10;53.20;;;;;;5078991;28;20484;-68
2023/04/05 00:52:22;;;;;;;5.75;3.72;;;6.00;53.20;;;;;;5081860;28;20028;-67
2023/04/05 00:54:48;;;;;;;5.38;3.40;;;6.00;53.20;;;;;;5077934;28;20031;-68
2023/04/05 00:57:15;;;;;;;7.07;3.30;;;6.00;53.30;;;;;;5080213;28;20054;-68
2023/04/05 00:59:41;;;;;;;6.30;3.80;;;6.00;53.40;;;;;;5079354;28;20032;-67
2023/04/05 01:02:19;;;;;;;5.75;3.33;;;6.00;53.50;;;;;;5079935;28;20478;-66
2023/04/05 01:04:52;;;;;;;4.78;3.15;;;5.90;53.50;;;;;;5081275;28;20467;-66
2023/04/05 01:07:35;;;;;;;4.80;2.95;;;5.90;53.60;;;;;;5081911;28;20439;-67
2023/04/05 01:10:04;;;;;;;5.75;3.40;;;5.90;53.70;;;;;;5079964;28;20536;-67
2023/04/05 01:12:32;;;;;;;5.47;3.50;;;5.80;53.70;;;;;;5079602;28;20044;-68
2023/04/05 01:15:00;;;;;;;5.28;3.28;;;5.80;53.90;;;;;;5076953;28;20032;-67
2023/04/05 01:17:27;;;;;;;5.95;4.03;;;5.80;54.00;;;;;;5080274;28;20086;-67
2023/04/05 01:19:58;;;;;;;4.63;3.20;;;5.80;54.10;;;;;;5079891;28;20032;-67
2023/04/05 01:22:54;;;;;;;5.90;3.38;;;5.70;54.10;;;;;;5081176;28;20506;-66
2023/04/05 01:25:49;;;;;;;6.00;3.67;;;5.70;54.20;;;;;;5078179;28;20115;-67
2023/04/05 01:28:47;;;;;;;5.47;3.75;;;5.70;54.30;;;;;;5076823;28;20017;-67
2023/04/05 01:31:21;;;;;;;6.20;3.53;;;5.70;54.40;;;;;;5076909;28;20126;-68
2023/04/05 01:34:17;;;;;;;4.70;3.22;;;5.60;54.50;;;;;;5095012;28;20028;-68
2023/04/05 01:36:48;;;;;;;5.55;3.42;;;5.60;54.60;;;;;;5079221;28;20123;-67
2023/04/05 01:39:17;;;;;;;5.60;3.70;;;5.50;54.80;;;;;;5075248;28;20057;-67
2023/04/05 01:41:43;;;;;;;6.32;3.60;;;5.50;55.00;;;;;;5075731;28;20058;-68
2023/04/05 01:44:09;;;;;;;6.78;4.25;;;5.50;55.10;;;;;;5075970;28;20482;-67
2023/04/05 01:46:35;;;;;;;8.10;3.92;;;5.40;55.10;;;;;;5078205;28;20038;-67
2023/04/05 01:49:00;;;;;;;4.97;3.65;;;5.30;55.30;;;;;;5081563;28;20363;-67
2023/04/05 01:51:26;;;;;;;4.88;3.65;;;5.30;55.50;;;;;;5079996;28;20086;-67
2023/04/05 01:53:52;;;;;;;5.40;3.80;;;5.30;55.60;;;;;;5078418;28;20024;-67
2023/04/05 01:56:17;;;;;;;4.90;3.45;;;5.20;55.70;;;;;;5080034;28;20035;-67
2023/04/05 01:58:43;;;;;;;6.38;3.90;;;5.30;55.90;;;;;;5081482;28;20032;-68
2023/04/05 02:01:09;;;;;;;6.13;4.03;;;5.20;55.90;;;;;;5077536;28;20032;-67
2023/04/05 02:03:35;;;;;;;7.93;4.15;;;5.10;56.00;;;;;;5081717;28;20066;-67
2023/04/05 02:06:00;;;;;;;5.32;3.60;;;5.10;56.10;;;;;;5079468;28;20028;-67
2023/04/05 02:08:26;;;;;;;5.35;3.60;;;5.10;56.20;;;;;;5080997;28;20027;-68
2023/04/05 02:10:52;;;;;;;6.18;4.07;;;5.10;56.30;;;;;;5078555;28;20402;-66
2023/04/05 02:13:18;;;;;;;4.80;3.50;;;5.10;56.30;;;;;;5080678;28;20020;-67
2023/04/05 02:15:49;;;;;;;8.02;4.15;;;5.10;56.40;;;;;;5079473;28;20434;-68
2023/04/05 02:18:20;;;;;;;5.75;3.63;;;5.10;56.40;;;;;;5081968;28;20054;-68
2023/04/05 02:20:51;;;;;;;5.30;3.85;;;5.10;56.50;;;;;;5077416;28;20021;-67
2023/04/05 02:23:19;;;;;;;7.38;3.80;;;5.00;56.40;;;;;;5079159;28;20036;-67
2023/04/05 02:25:45;;;;;;;5.32;3.53;;;5.00;56.60;;;;;;5080570;28;20055;-67
2023/04/05 02:28:11;;;;;;;6.95;4.47;;;5.00;56.70;;;;;;5076025;28;20660;-65
2023/04/05 02:30:36;;;;;;;5.68;3.85;;;5.00;56.80;;;;;;5078896;28;20023;-67
2023/04/05 02:33:03;;;;;;;8.43;4.65;;;5.00;56.90;;;;;;5081838;28;20031;-67
2023/04/05 02:35:29;;;;;;;6.75;4.28;;;5.00;57.00;;;;;;5078729;28;20017;-67
2023/04/05 02:37:55;;;;;;;5.65;3.42;;;5.00;57.10;;;;;;5077719;28;20031;-67
2023/04/05 02:40:21;;;;;;;5.50;3.80;;;4.90;57.10;;;;;;5078203;28;20368;-67
2023/04/05 02:42:47;;;;;;;6.90;4.00;;;4.90;57.20;;;;;;5078931;28;20504;-67
2023/04/05 02:45:12;;;;;;;7.47;3.97;;;4.90;57.20;;;;;;5077937;28;20033;-67
2023/04/05 02:47:38;;;;;;;6.00;3.50;;;4.80;57.50;;;;;;5079198;28;20020;-67
2023/04/05 02:50:04;;;;;;;6.72;4.13;;;4.80;57.60;;;;;;5077337;28;20031;-66
2023/04/05 02:52:31;;;;;;;5.05;3.55;;;4.70;57.70;;;;;;5081005;28;20394;-66
2023/04/05 02:54:56;;;;;;;5.20;3.80;;;4.70;57.80;;;;;;5078465;28;20031;-67
2023/04/05 02:57:22;;;;;;;5.90;4.05;;;4.80;57.90;;;;;;5075843;28;20020;-65
2023/04/05 02:59:47;;;;;;;5.72;3.65;;;4.70;57.80;;;;;;5079412;28;20483;-67
2023/04/05 03:02:13;;;;;;;5.00;3.70;;;4.80;57.80;;;;;;5079007;28;20035;-68
2023/04/05 03:04:39;;;;;;;6.38;3.97;;;4.70;57.80;;;;;;5081643;28;20545;-67
2023/04/05 03:07:06;;;;;;;5.22;3.45;;;4.70;58.00;;;;;;5078188;28;20107;-67
2023/04/05 03:09:32;;;;;;;7.22;4.00;;;4.70;58.10;;;;;;5078524;28;20634;-67
2023/04/05 03:12:04;;;;;;;5.78;4.00;;;4.60;58.30;;;;;;5079148;28;20086;-66
2023/04/05 03:14:30;;;;;;;4.80;3.50;;;4.50;58.50;;;;;;5077524;28;20028;-66
2023/04/05 03:16:57;;;;;;;5.20;4.20;;;4.50;58.60;;;;;;5078179;28;20025;-66
2023/04/05 03:19:25;;;;;;;7.78;4.43;;;4.50;58.70;;;;;;5080756;28;20029;-66
2023/04/05 03:21:51;;;;;;;6.90;4.57;;;4.50;59.00;;;;;;5078662;28;20024;-66
2023/04/05 03:24:16;;;;;;;5.93;4.43;;;4.40;59.10;;;;;;5085290;28;20020;-66
2023/04/05 03:26:44;;;;;;;6.57;4.22;;;4.40;59.30;;;;;;5078112;28;20518;-68
2023/04/05 03:29:10;;;;;;;7.05;4.20;;;4.40;59.30;;;;;;5084059;28;20085;-68
2023/04/05 03:31:35;;;;;;;4.40;3.00;;;4.40;59.30;;;;;;5079936;28;20049;-67
2023/04/05 03:34:01;;;;;;;6.90;4.18;;;4.30;59.30;;;;;;5082185;28;20036;-66
2023/04/05 03:36:40;;;;;;;7.32;4.70;;;4.30;59.70;;;;;;5083329;28;20032;-68
2023/04/05 03:39:12;;;;;;;6.78;4.70;;;4.20;60.00;;;;;;5082690;28;20020;-67
2023/04/05 03:41:39;;;;;;;8.02;4.47;;;4.20;60.20;;;;;;5079549;28;20439;-67
2023/04/05 03:44:06;;;;;;;6.25;4.00;;;4.30;60.10;;;;;;5083633;28;20421;-67
2023/04/05 03:46:31;;;;;;;5.18;3.92;;;4.30;60.00;;;;;;5082813;28;20371;-65
2023/04/05 03:48:58;;;;;;;7.70;4.43;;;4.30;59.90;;;;;;5079785;28;20027;-66
2023/04/05 03:51:24;;;;;;;5.25;3.90;;;4.30;59.90;;;;;;5081756;28;20104;-68
2023/04/05 03:53:50;;;;;;;8.18;4.60;;;4.40;59.80;;;;;;5084520;28;20020;-67
2023/04/05 03:56:16;;;;;;;6.80;4.20;;;4.30;59.80;;;;;;5078595;28;20020;-66
2023/04/05 03:58:42;;;;;;;6.95;5.00;;;4.30;60.00;;;;;;5081432;28;20024;-66
2023/04/05 04:01:08;;;;;;;7.80;4.75;;;4.20;60.30;;;;;;5081768;28;20473;-65
2023/04/05 04:03:36;;;;;;;6.05;4.22;;;4.30;60.40;;;;;;5079021;28;20475;-67
2023/04/05 04:06:02;;;;;;;7.93;4.22;;;4.30;60.30;;;;;;5080878;28;20021;-66
2023/04/05 04:08:27;;;;;;;7.15;4.75;;;4.30;60.20;;;;;;5079291;28;20023;-66
2023/04/05 04:10:53;;;;;;;7.38;4.10;;;4.30;60.10;;;;;;5083200;28;20020;-67
2023/04/05 04:13:19;;;;;;;7.45;4.07;;;4.30;60.10;;;;;;5086450;28;20052;-67
2023/04/05 04:15:45;;;;;;;5.78;4.15;;;4.30;60.10;;;;;;5080203;28;20069;-67
2023/04/05 04:18:11;;;;;;;6.40;4.15;;;4.30;60.10;;;;;;5085523;28;20055;-66
2023/04/05 04:20:37;;;;;;;6.32;3.63;;;4.30;60.10;;;;;;5081709;28;20020;-67
2023/04/05 04:23:03;;;;;;;6.32;3.67;;;4.20;60.20;;;;;;5081801;28;20647;-66
2023/04/05 04:25:29;;;;;;;6.22;3.55;;;4.20;60.30;;;;;;5080346;28;20059;-67
2023/04/05 04:27:55;;;;;;;5.45;3.60;;;4.20;60.20;;;;;;5080659;28;20094;-67
2023/04/05 04:30:21;;;;;;;6.97;4.65;;;4.20;60.20;;;;;;5082304;28;20442;-67
2023/04/05 04:32:51;;;;;;;5.43;4.10;;;4.20;60.30;;;;;;5080825;28;20020;-66
2023/04/05 04:35:23;;;;;;;8.73;4.70;;;4.10;60.30;;;;;;5081386;28;20074;-69
2023/04/05 04:38:07;;;;;;;5.68;4.50;;;4.20;60.40;;;;;;5080099;28;20020;-68
2023/04/05 04:40:37;;;;;;;5.95;3.70;;;4.10;60.50;;;;;;5083310;28;20031;-68
2023/04/05 04:43:13;;;;;;;6.22;3.75;;;4.10;60.50;;;;;;5078216;28;20383;-68
2023/04/05 04:45:39;;;;;;;8.60;4.80;;;4.00;60.70;;;;;;5078955;28;20406;-68
2023/04/05 04:48:05;;;;;;;7.70;4.03;;;4.00;60.70;;;;;;5079070;28;20138;-68
2023/04/05 04:50:31;;;;;;;5.97;4.00;;;3.90;60.70;;;;;;5079797;28;20102;-68
2023/04/05 04:53:00;;;;;;;6.10;3.83;;;3.90;60.80;;;;;;5083420;28;20031;-67
2023/04/05 04:55:27;;;;;;;6.32;4.07;;;3.90;61.00;;;;;;5082922;28;20016;-68
2023/04/05 04:57:53;;;;;;;6.00;4.70;;;3.80;61.00;;;;;;5077565;28;20035;-67
2023/04/05 05:00:20;;;;;;;6.95;4.03;;;3.90;61.10;;;;;;5077248;28;20048;-68
2023/04/05 05:02:46;;;;;;;6.07;4.22;;;3.90;61.10;;;;;;5078072;28;20043;-68
2023/04/05 05:05:12;;;;;;;7.60;4.47;;;3.90;61.10;;;;;;5083275;28;20099;-68
2023/04/05 05:07:42;;;;;;;5.95;4.10;;;3.90;61.10;;;;;;5075965;28;20020;-68
2023/04/05 05:10:14;;;;;;;6.25;4.50;;;3.80;61.20;;;;;;5081736;28;20025;-67
2023/04/05 05:12:40;;;;;;;6.00;4.38;;;3.90;61.30;;;;;;5074526;28;20025;-68
2023/04/05 05:15:06;;;;;;;7.20;4.68;;;3.90;61.20;;;;;;5082783;28;20027;-68
2023/04/05 05:17:33;;;;;;;6.38;4.15;;;3.90;61.10;;;;;;5079394;28;20110;-69
2023/04/05 05:19:59;;;;;;;8.85;5.00;;;3.90;61.10;;;;;;5081666;28;20031;-68
2023/04/05 05:22:25;;;;;;;6.85;4.10;;;3.90;61.10;;;;;;5080366;28;20029;-68
2023/04/05 05:24:52;;;;;;;7.00;4.47;;;3.90;61.10;;;;;;5074347;28;20023;-67
2023/04/05 05:27:17;;;;;;;6.68;4.32;;;4.00;61.20;;;;;;5078496;28;20146;-69
2023/04/05 05:29:43;;;;;;;6.43;4.28;;;4.00;61.20;;;;;;5073152;28;20446;-69
2023/04/05 05:32:13;;;;;;;5.55;4.05;;;4.00;61.10;;;;;;5071277;28;20036;-68
2023/04/05 05:34:39;;;;;;;6.28;3.75;;;4.00;61.10;;;;;;5071050;28;20022;-67
2023/04/05 05:37:05;;;;;;;5.65;4.00;;;4.10;61.10;;;;;;5070620;28;20112;-67
2023/04/05 05:39:31;;;;;;;7.97;5.15;;;4.30;61.20;;;;;;5074271;28;20024;-67
2023/04/05 05:41:56;;;;;;;6.25;4.18;;;4.70;60.70;;;;;;5077817;28;20043;-70
2023/04/05 05:44:22;;;;;;;6.28;4.80;;;4.90;60.00;;;;;;5075515;28;20028;-68
2023/04/05 05:46:47;;;;;;;7.00;5.00;;;4.90;59.60;;;;;;5074944;28;20059;-68
2023/04/05 05:49:13;;;;;;;6.35;4.72;;;5.00;59.50;;;;;;5076431;28;20107;-66
2023/04/05 05:51:39;;;;;;;9.15;5.38;;;5.20;59.40;;;;;;5073296;28;20021;-67
2023/04/05 05:54:05;;;;;;;8.32;5.13;;;5.60;58.80;;;;;;5077910;28;20091;-67
2023/04/05 05:56:30;;;;;;;6.25;5.07;;;6.40;58.00;;;;;;5079986;28;20031;-68
2023/04/05 05:58:56;;;;;;;8.38;4.78;;;7.60;56.20;;;;;;5081167;28;20024;-68
2023/04/05 06:01:21;;;;;;;7.75;4.90;;;8.70;53.60;;;;;;5078691;28;20032;-68
2023/04/05 06:03:48;;;;;;;7.35;5.20;;;9.60;51.80;;;;;;5081938;28;20047;-67
2023/04/05 06:06:13;;;;;;;5.43;3.90;;;10.30;49.70;;;;;;5075238;28;20025;-67
2023/04/05 06:08:39;;;;;;;6.95;4.68;;;11.30;49.50;;;;;;5086795;28;20113;-68
2023/04/05 06:11:05;;;;;;;6.55;4.15;;;12.00;47.20;;;;;;5089521;28;20024;-67
2023/04/05 06:13:30;;;;;;;7.97;5.18;;;12.70;46.00;;;;;;5089370;28;20032;-66
2023/04/05 06:15:56;;;;;;;7.10;4.78;;;12.90;44.30;;;;;;5078600;28;21101;-66
2023/04/05 06:18:21;;;;;;;6.93;4.75;;;13.30;43.30;;;;;;5089072;28;20058;-67
2023/04/05 06:20:47;;;;;;;7.18;4.93;;;13.50;42.80;;;;;;5091172;28;20020;-67
2023/04/05 06:23:13;;;;;;;6.40;4.10;;;14.10;42.60;;;;;;5074572;28;20050;-67
2023/04/05 06:25:39;;;;;;;7.57;4.97;;;14.70;41.70;;;;;;5082009;28;20477;-66
2023/04/05 06:28:06;;;;;;;7.40;5.00;;;15.00;40.10;;;;;;5079110;28;20031;-67
2023/04/05 06:30:33;;;;;;;6.47;4.40;;;15.10;39.80;;;;;;5089432;28;20028;-68
2023/04/05 06:32:59;;;;;;;7.38;4.28;;;15.50;39.20;;;;;;5078809;28;20192;-68
2023/04/05 06:35:25;;;;;;;6.65;3.80;;;15.70;38.80;;;;;;5085323;28;20440;-67
2023/04/05 06:37:51;;;;;;;5.03;3.80;;;16.10;38.70;;;;;;5084788;28;20047;-67
2023/04/05 06:40:18;;;;;;;5.55;3.95;;;16.80;38.10;;;;;;5081297;28;20047;-67
2023/04/05 06:42:44;;;;;;;6.30;4.28;;;17.10;37.20;;;;;;5082909;28;20016;-69
2023/04/05 06:45:10;;;;;;;6.47;4.80;;;17.00;36.80;;;;;;5077719;28;20299;-67
2023/04/05 06:47:38;;;;;;;6.72;4.68;;;17.30;36.00;;;;;;5083992;28;20486;-68
2023/04/05 06:50:08;;;;;;;5.97;4.20;;;17.40;35.70;;;;;;5090926;28;20032;-66
2023/04/05 06:52:34;;;;;;;6.35;4.25;;;17.90;35.80;;;;;;5083437;28;20039;-67
2023/04/05 06:55:00;;;;;;;6.43;3.75;;;18.20;35.10;;;;;;5084983;28;20535;-67
2023/04/05 06:57:26;;;;;;;5.93;4.18;;;18.50;35.00;;;;;;5088394;28;20112;-67
2023/04/05 06:59:53;;;;;;;5.97;3.85;;;18.90;34.60;;;;;;5096524;28;20035;-67
2023/04/05 07:02:19;;;;;;;6.00;4.50;;;18.90;34.00;;;;;;5086903;28;20480;-68
2023/04/05 07:04:46;;;;;;;7.88;4.40;;;19.10;34.00;;;;;;5084432;28;20638;-67
2023/04/05 07:07:12;;;;;;;6.70;4.30;;;19.00;33.40;;;;;;5087221;28;20029;-67
2023/04/05 07:09:37;;;;;;;5.97;3.80;;;19.80;33.70;;;;;;5085560;28;20052;-67
2023/04/05 07:12:05;;;;;;;5.72;3.92;;;20.30;33.00;;;;;;5091864;28;20446;-67
2023/04/05 07:14:32;;;;;;;4.95;3.40;;;20.60;32.50;;;;;;5076507;28;20036;-67
2023/04/05 07:16:58;;;;;;;6.10;3.70;;;20.70;31.70;;;;;;5086726;28;20484;-67
2023/04/05 07:19:23;;;;;;;6.20;3.80;;;20.70;31.70;;;;;;5085161;28;20058;-67
2023/04/05 07:21:49;;;;;;;4.20;3.40;;;21.00;31.80;;;;;;5087685;28;20060;-67
2023/04/05 07:24:15;;;;;;;5.93;4.50;;;21.10;30.80;;;;;;5086142;28;20566;-67
2023/04/05 07:26:40;;;;;;;4.97;4.40;;;20.30;30.10;;;;;;5088398;28;20036;-67
2023/04/05 07:29:07;;;;;;;6.22;4.15;;;19.90;30.70;;;;;;5083776;28;20024;-67
2023/04/05 07:31:33;;;;;;;5.75;3.97;;;19.80;31.10;;;;;;5086476;28;20090;-68
2023/04/05 07:34:00;;;;;;;6.70;4.25;;;19.70;31.10;;;;;;5092641;28;20022;-67
2023/04/05 07:36:26;;;;;;;6.18;3.97;;;20.00;31.20;;;;;;5074660;28;20056;-67
2023/04/05 07:38:54;;;;;;;6.45;3.88;;;20.20;30.90;;;;;;5084869;28;20342;-67
2023/04/05 07:41:22;;;;;;;5.45;3.97;;;20.20;30.40;;;;;;5090731;28;20078;-67
2023/04/05 07:43:48;;;;;;;8.00;4.78;;;19.80;30.20;;;;;;5081985;28;20025;-67
2023/04/05 07:46:14;;;;;;;6.32;4.43;;;18.40;30.50;;;;;;5084857;28;20036;-66
2023/04/05 07:48:40;;;;;;;6.05;4.35;;;16.50;31.90;;;;;;5083266;28;20034;-66
2023/04/05 07:51:07;;;;;;;6.65;4.40;;;15.10;34.00;;;;;;5085487;28;20036;-66
2023/04/05 07:53:34;;;;;;;6.38;4.28;;;14.20;35.40;;;;;;5088461;28;20024;-66
2023/04/05 07:56:10;;;;;;;6.15;4.75;;;13.60;36.50;;;;;;5079768;28;20029;-66
2023/04/05 07:58:39;;;;;;;6.93;4.72;;;13.20;37.60;;;;;;5090209;28;20060;-66
2023/04/05 08:01:06;;;;;;;6.13;4.55;;;12.90;38.40;;;;;;5091726;28;20032;-66
2023/04/05 08:03:33;;;;;;;5.85;4.40;;;12.60;38.80;;;;;;5090411;28;20525;-68
2023/04/05 08:06:11;;;;;;;5.43;4.57;;;12.40;39.10;;;;;;5086109;28;21019;-68
2023/04/05 08:08:36;;;;;;;6.13;4.60;;;11.90;39.80;;;;;;5081316;28;20058;-68
2023/04/05 08:11:02;;;;;;;6.68;4.60;;;11.60;40.50;;;;;;5079804;28;20103;-67
2023/04/05 08:13:28;;;;;;;7.10;4.72;;;11.50;41.10;;;;;;5084576;28;20107;-68
2023/04/05 08:15:55;;;;;;;5.50;4.47;;;11.40;41.50;;;;;;5077866;28;20135;-65
2023/04/05 08:18:21;;;;;;;6.95;4.80;;;11.30;41.90;;;;;;5089957;28;20047;-67
2023/04/05 08:20:50;;;;;;;6.65;4.97;;;11.20;42.20;;;;;;5088269;28;20020;-67
2023/04/05 08:23:16;;;;;;;8.02;5.18;;;11.10;42.50;;;;;;5091100;28;20521;-66
2023/04/05 08:25:43;;;;;;;5.82;4.60;;;10.90;42.50;;;;;;5086460;28;20032;-66
2023/04/05 08:28:09;;;;;;;6.82;4.95;;;10.80;42.60;;;;;;5086162;28;20023;-67
2023/04/05 08:30:35;;;;;;;6.70;5.00;;;10.80;42.90;;;;;;5081039;28;20016;-67
2023/04/05 08:33:01;;;;;;;5.63;4.28;;;10.70;43.20;;;;;;5086532;28;20442;-67
2023/04/05 08:35:26;;;;;;;6.50;4.68;;;10.90;43.60;;;;;;5083295;28;20020;-66
2023/04/05 08:37:52;;;;;;;5.40;4.00;;;10.90;42.80;;;;;;5082144;28;20052;-67
2023/04/05 08:40:18;;;;;;;7.05;4.68;;;10.90;42.90;;;;;;5087436;28;20467;-67
2023/04/05 08:42:56;;;;;;;7.13;4.97;;;11.00;43.50;;;;;;5084963;28;20020;-67
2023/04/05 08:45:24;;;;;;;7.20;5.00;;;10.90;42.70;;;;;;5085185;28;20016;-66
2023/04/05 08:47:52;;;;;;;6.45;4.78;;;10.80;42.00;;;;;;5088570;28;20024;-67
2023/04/05 08:50:18;;;;;;;6.97;4.50;;;10.80;42.10;;;;;;5084773;28;20078;-67
2023/04/05 08:52:48;;;;;;;7.32;4.70;;;10.70;41.50;;;;;;5076450;28;20077;-67
2023/04/05 08:55:15;;;;;;;6.13;4.32;;;10.70;41.90;;;;;;5089296;28;20038;-67
2023/04/05 08:57:43;;;;;;;5.90;4.15;;;10.80;42.10;;;;;;5082205;28;20486;-67
2023/04/05 09:00:10;;;;;;;5.88;4.20;;;10.90;42.20;;;;;;5086548;28;20135;-68
2023/04/05 09:02:37;;;;;;;7.18;4.70;;;10.90;42.20;;;;;;5083962;28;20078;-67
2023/04/05 09:05:07;;;;;;;7.68;4.60;;;11.00;41.80;;;;;;5087710;28;20052;-67
2023/04/05 09:07:35;;;;;;;6.18;4.20;;;11.00;42.10;;;;;;5090126;28;20024;-67
2023/04/05 09:10:01;;;;;;;5.80;4.78;;;11.00;42.00;;;;;;5088444;28;20101;-66
2023/04/05 09:12:28;;;;;;;7.82;4.78;;;10.90;41.90;;;;;;5080706;28;20024;-67
2023/04/05 09:14:54;;;;;;;7.85;4.40;;;10.90;41.80;;;;;;5089671;28;20027;-66
2023/04/05 09:17:21;;;;;;;6.78;4.38;;;10.90;42.10;;;;;;5100390;28;20051;-66
2023/04/05 09:19:49;;;;;;;6.10;4.50;;;10.90;42.30;;;;;;5085071;28;20035;-67
2023/04/05 09:22:17;;;;;;;6.15;3.92;;;11.10;42.90;;;;;;5078060;28;20059;-67
2023/04/05 09:24:44;;;;;;;6.07;4.28;;;11.10;42.10;;;;;;5082857;28;20028;-65
2023/04/05 09:27:17;;;;;;;4.95;3.90;;;11.20;42.20;;;;;;5084156;28;20122;-66
2023/04/05 09:29:47;;;;;;;7.50;4.50;;;11.20;42.30;;;;;;5089304;28;20024;-66
2023/04/05 09:32:14;;;;;;;7.00;4.82;;;11.10;42.20;;;;;;5083111;28;20025;-66
2023/04/05 09:34:41;;;;;;;9.02;4.78;;;11.10;42.20;;;;;;5082171;28;20025;-67
2023/04/05 09:37:20;;;;;;;6.53;4.30;;;11.10;42.50;;;;;;5084804;28;20069;-65
2023/04/05 09:39:48;;;;;;;7.05;4.40;;;11.20;42.20;;;;;;5083668;28;20020;-67
2023/04/05 09:42:15;;;;;;;7.00;4.65;;;11.00;41.90;;;;;;5090090;28;20375;-67
2023/04/05 09:44:51;;;;;;;7.10;5.03;;;11.10;42.10;;;;;;5082942;28;20379;-67
2023/04/05 09:47:23;;;;;;;5.72;4.30;;;11.00;40.80;;;;;;5088075;28;20452;-67
2023/04/05 09:49:49;;;;;;;6.45;4.50;;;11.00;41.10;;;;;;5080692;28;20017;-65
2023/04/05 09:52:24;;;;;;;6.50;4.68;;;11.00;41.70;;;;;;5080217;28;20095;-67
2023/04/05 09:54:55;;;;;;;6.55;4.53;;;10.90;41.50;;;;;;5085696;28;20024;-65
2023/04/05 09:57:22;;;;;;;8.10;5.22;;;10.90;41.20;;;;;;5078709;28;20036;-66
2023/04/05 09:59:47;;;;;;;6.32;4.50;;;10.80;40.80;;;;;;5075189;28;20020;-66
2023/04/05 10:02:14;;;;;;;8.38;5.68;;;10.80;41.40;;;;;;5082552;28;20077;-66
2023/04/05 10:04:42;;;;;;;8.63;4.65;;;10.90;41.60;;;;;;5082199;28;20028;-67
2023/04/05 10:07:12;;;;;;;5.72;4.28;;;10.90;41.60;;;;;;5086935;28;20081;-66
2023/04/05 10:09:39;;;;;;;6.18;4.82;;;10.90;41.70;;;;;;5080951;28;20378;-66
2023/04/05 10:12:06;;;;;;;7.05;4.70;;;11.00;41.80;;;;;;5089551;28;20099;-66
2023/04/05 10:14:32;;;;;;;6.13;4.45;;;11.00;41.10;;;;;;5083078;28;20028;-66
2023/04/05 10:17:08;;;;;;;4.85;4.05;;;11.00;40.90;;;;;;5070769;28;20036;-66
2023/04/05 10:20:02;;;;;;;7.40;4.78;;;11.10;41.40;;;;;;5079614;28;20024;-66
2023/04/05 10:23:05;;;;;;;7.95;4.90;;;11.00;40.30;;;;;;5078451;28;20077;-66
2023/04/05 10:25:45;;;;;;;8.25;4.95;;;11.00;40.90;;;;;;5079524;28;20398;-66
2023/04/05 10:28:31;;;;;;;6.30;4.63;;;11.00;39.30;;;;;;5086232;28;20050;-67
2023/04/05 10:31:31;;;;;;;6.40;4.43;;;11.10;39.60;;;;;;5079142;28;20077;-66
2023/04/05 10:34:05;;;;;;;8.45;4.72;;;11.10;40.00;;;;;;5082298;28;20039;-66
2023/04/05 10:37:02;;;;;;;8.63;4.78;;;11.20;40.40;;;;;;5085170;28;20021;-66
2023/04/05 10:39:45;;;;;;;6.50;4.35;;;11.30;40.20;;;;;;5081039;28;20024;-66
2023/04/05 10:42:26;;;;;;;8.35;5.10;;;11.40;40.50;;;;;;5085642;28;20024;-67
2023/04/05 10:44:59;;;;;;;7.35;5.05;;;11.40;40.00;;;;;;5083820;28;20035;-67
2023/04/05 10:47:27;;;;;;;7.20;4.82;;;11.40;39.90;;;;;;5086793;28;20082;-66
2023/04/05 10:49:58;;;;;;;6.45;4.55;;;11.40;39.70;;;;;;5080857;28;20040;-66
2023/04/05 10:52:24;;;;;;;7.97;5.18;;;11.40;39.60;;;;;;5080554;28;20060;-67
2023/04/05 10:54:51;;;;;;;7.97;4.70;;;11.50;39.80;;;;;;5082133;28;20103;-66
2023/04/05 10:57:19;;;;;;;6.28;4.32;;;11.50;39.60;;;;;;5081988;28;20096;-66
2023/04/05 10:59:47;;;;;;;6.60;4.20;;;11.70;39.90;;;;;;5083752;28;20028;-66
2023/04/05 11:02:15;;;;;;;7.15;4.63;;;11.80;39.90;;;;;;5093656;28;20025;-66
2023/04/05 11:04:40;;;;;;;6.90;4.82;;;11.80;39.50;;;;;;5079772;28;20030;-68
2023/04/05 11:07:16;;;;;;;6.45;4.60;;;11.70;39.10;;;;;;5086817;28;20482;-68
2023/04/05 11:09:55;;;;;;;6.80;4.50;;;11.70;39.20;;;;;;5080984;28;20012;-68
2023/04/05 11:12:47;;;;;;;7.13;5.45;;;11.80;39.30;;;;;;5083134;28;20478;-67
2023/04/05 11:15:26;;;;;;;6.85;4.80;;;11.70;38.40;;;;;;5084227;28;20493;-68
2023/04/05 11:18:17;;;;;;;5.45;3.90;;;11.60;39.50;;;;;;5086862;28;20024;-67
2023/04/05 11:20:46;;;;;;;5.80;4.18;;;11.80;39.40;;;;;;5089655;28;20035;-67
2023/04/05 11:23:19;;;;;;;6.13;3.60;;;11.90;39.20;;;;;;5084272;28;20116;-67
2023/04/05 11:25:48;;;;;;;6.95;5.50;;;12.00;39.30;;;;;;5082824;28;20082;-67
2023/04/05 11:28:30;;;;;;;7.57;5.57;;;11.90;38.30;;;;;;5088858;28;20423;-67
2023/04/05 11:30:57;;;;;;;7.57;5.30;;;11.80;38.90;;;;;;5083489;28;20020;-67
2023/04/05 11:33:41;;;;;;;6.30;4.53;;;11.80;39.30;;;;;;5087990;28;20428;-67
2023/04/05 11:36:08;;;;;;;6.13;4.90;;;12.00;39.40;;;;;;5084955;28;20394;-68
2023/04/05 11:38:34;;;;;;;8.52;5.25;;;12.10;38.80;;;;;;5090590;28;20020;-68
2023/04/05 11:41:16;;;;;;;6.85;4.97;;;12.10;38.50;;;;;;5085639;28;20560;-68
2023/04/05 11:43:46;;;;;;;;;;;12.10;38.30;;;;;;5086842;28;20158;-68
2023/04/05 11:46:15;;;;;;;10.30;5.82;;;12.00;38.70;;;;;;5088399;28;19916;-67
2023/04/05 11:48:43;;;;;;;7.78;4.97;;;12.00;38.60;;;;;;5081931;28;20032;-67
2023/04/05 11:51:09;;;;;;;6.10;4.70;;;12.00;38.80;;;;;;5083262;28;20031;-67
2023/04/05 11:53:36;;;;;;;6.95;4.75;;;12.20;38.90;;;;;;5086443;28;20020;-67
2023/04/05 11:56:12;;;;;;;7.15;5.25;;;12.40;37.90;;;;;;5088096;28;20035;-68
2023/04/05 11:58:38;;;;;;;6.68;4.95;;;12.40;37.50;;;;;;5081760;28;20078;-67
2023/04/05 12:01:08;;;;;;;8.02;4.57;;;12.30;37.30;;;;;;5077688;28;20025;-68
2023/04/05 12:03:36;;;;;;;6.88;5.13;;;12.40;38.10;;;;;;5080121;28;20040;-67
2023/04/05 12:06:04;;;;;;;7.10;4.63;;;12.30;37.10;;;;;;5080661;28;20060;-67
2023/04/05 12:08:41;;;;;;;6.18;5.00;;;12.30;37.60;;;;;;5088228;28;20387;-67
2023/04/05 12:11:08;;;;;;;5.78;4.43;;;12.40;37.20;;;;;;5083614;28;20048;-67
2023/04/05 12:13:34;;;;;;;7.05;5.10;;;12.60;37.80;;;;;;5091875;28;20066;-68
2023/04/05 12:16:01;;;;;;;6.55;4.50;;;12.60;37.50;;;;;;5084606;28;20036;-68
2023/04/05 12:18:29;;;;;;;7.63;5.40;;;12.70;37.60;;;;;;5087897;28;20024;-68
2023/04/05 12:20:55;;;;;;;7.70;5.15;;;12.70;37.10;;;;;;5075935;28;20036;-68
2023/04/05 12:23:22;;;;;;;7.75;5.30;;;12.70;37.00;;;;;;5083942;28;20437;-67
2023/04/05 12:25:48;;;;;;;6.47;4.50;;;12.70;36.40;;;;;;5089117;28;20150;-67
2023/04/05 12:28:14;;;;;;;7.28;4.97;;;12.70;37.00;;;;;;5083998;28;20016;-66
2023/04/05 12:30:53;;;;;;;6.50;4.65;;;12.60;37.10;;;;;;5080704;28;20432;-68
2023/04/05 12:33:31;;;;;;;6.90;5.18;;;12.60;37.20;;;;;;5089652;28;20024;-68
2023/04/05 12:35:58;;;;;;;7.63;5.10;;;12.70;36.80;;;;;;5084558;28;20020;-68
2023/04/05 12:38:26;;;;;;;8.57;4.75;;;12.70;37.10;;;;;;5084765;28;20103;-67
2023/04/05 12:40:53;;;;;;;6.78;5.03;;;12.90;37.50;;;;;;5089433;28;20028;-67
2023/04/05 12:43:19;;;;;;;8.32;5.53;;;12.80;36.30;;;;;;5078698;28;20052;-67
2023/04/05 12:45:45;;;;;;;6.65;5.10;;;12.80;37.10;;;;;;5083282;28;20054;-67
2023/04/05 12:48:12;;;;;;;6.18;4.38;;;13.10;37.10;;;;;;5083456;28;20426;-68
2023/04/05 12:50:43;;;;;;;6.88;5.25;;;13.20;37.10;;;;;;5084934;28;20059;-67
2023/04/05 12:53:22;;;;;;;8.02;5.22;;;13.20;36.90;;;;;;5084176;28;20032;-68
2023/04/05 12:55:52;;;;;;;6.57;4.88;;;13.30;36.60;;;;;;5071118;28;20059;-68
2023/04/05 12:58:30;;;;;;;9.13;5.40;;;13.40;36.20;;;;;;5081115;28;20363;-68
2023/04/05 13:00:57;;;;;;;6.75;4.80;;;13.20;36.00;;;;;;5079396;28;20417;-67